createdAt,value
2022-12-23T00:03:26.136Z,31.27
2022-12-23T00:07:28.248Z,31.48
2022-12-23T00:11:30.436Z,32.20
2022-12-23T00:15:32.668Z,31.45
2022-12-23T00:19:34.797Z,30.90
2022-12-23T00:23:41.971Z,29.63
2022-12-23T00:28:01.429Z,29.23
2022-12-23T00:32:03.880Z,30.20
2022-12-23T00:36:20.150Z,31.85
2022-12-23T00:40:41.037Z,32.55
2022-12-23T00:44:43.212Z,39.05
2022-12-23T00:49:04.556Z,37.17
2022-12-23T00:53:07.341Z,38.55
2022-12-23T00:57:09.711Z,38.00
2022-12-23T01:01:30.630Z,41.78
2022-12-23T01:05:38.855Z,40.47
2022-12-23T01:09:41.049Z,41.75
2022-12-23T01:13:43.142Z,35.25
2022-12-23T01:17:45.323Z,34.58
2022-12-23T01:21:47.431Z,35.03
2022-12-23T01:25:57.439Z,35.33
2022-12-23T01:29:59.507Z,32.60
2022-12-23T01:34:01.664Z,34.08
2022-12-23T01:38:04.538Z,34.58
2022-12-23T01:42:32.249Z,34.58
2022-12-23T01:46:34.400Z,35.50
2022-12-23T01:50:51.758Z,35.75
2022-12-23T01:54:55.344Z,39.53
2022-12-23T01:59:01.092Z,39.08
2022-12-23T02:03:21.886Z,41.17
2022-12-23T02:07:42.687Z,37.72
2022-12-23T02:11:54.908Z,39.97
2022-12-23T02:16:19.658Z,40.65
2022-12-23T02:29:21.960Z,37.75
2022-12-23T02:33:53.582Z,39.13
2022-12-23T02:38:18.966Z,39.70
2022-12-23T02:42:29.819Z,43.70
2022-12-23T02:46:56.756Z,42.05
2022-12-23T02:51:02.176Z,42.03
2022-12-23T02:55:10.740Z,42.95
2022-12-23T02:59:20.562Z,40.97
2022-12-23T03:03:24.201Z,42.25
2022-12-23T03:07:46.695Z,44.03
2022-12-23T03:12:01.147Z,43.33
2022-12-23T03:16:22.197Z,42.63
2022-12-23T03:20:49.775Z,42.85
2022-12-23T03:25:04.604Z,43.25
2022-12-23T03:29:17.475Z,41.08
2022-12-23T03:33:34.885Z,41.97
2022-12-23T03:37:40.553Z,39.55
2022-12-23T03:41:47.525Z,39.58
2022-12-23T03:45:55.411Z,37.10
2022-12-23T03:50:02.064Z,37.88
2022-12-23T03:54:11.870Z,37.25
2022-12-23T03:58:35.190Z,35.83
2022-12-23T04:02:57.329Z,38.13
2022-12-23T04:07:05.193Z,35.20
2022-12-23T04:11:08.213Z,35.55
2022-12-23T04:15:13.099Z,37.90
2022-12-23T04:19:16.313Z,35.78
2022-12-23T04:23:18.723Z,36.55
2022-12-23T04:27:20.949Z,38.50
2022-12-23T04:31:23.212Z,37.45
2022-12-23T04:35:25.419Z,35.95
2022-12-23T04:39:27.464Z,36.50
2022-12-23T04:43:29.606Z,39.78
2022-12-23T04:47:31.833Z,37.58
2022-12-23T04:51:34.625Z,38.45
2022-12-23T04:55:36.789Z,35.88
2022-12-23T04:59:39.221Z,35.60
2022-12-23T05:03:41.563Z,38.33
2022-12-23T05:07:43.920Z,36.20
2022-12-23T05:11:46.142Z,33.08
2022-12-23T05:15:53.705Z,32.03
2022-12-23T05:19:55.924Z,27.92
2022-12-23T05:23:58.355Z,29.20
2022-12-23T05:28:00.483Z,26.73
2022-12-23T05:32:02.709Z,26.52
2022-12-23T05:36:05.727Z,27.45
2022-12-23T05:40:08.568Z,28.25
2022-12-23T05:44:10.928Z,26.92
2022-12-23T05:48:13.850Z,27.98
2022-12-23T05:52:15.931Z,27.92
2022-12-23T05:56:18.148Z,27.02
2022-12-23T06:00:21.044Z,26.70
2022-12-23T06:04:23.967Z,27.42
2022-12-23T06:08:26.283Z,26.58
2022-12-23T06:12:28.437Z,26.48
2022-12-23T06:16:30.594Z,27.70
2022-12-23T06:20:33.219Z,26.05
2022-12-23T06:24:35.481Z,28.10
2022-12-23T06:28:37.664Z,27.30
2022-12-23T06:32:40.218Z,27.08
2022-12-23T06:36:42.423Z,28.35
2022-12-23T06:40:44.700Z,27.67
2022-12-23T06:44:46.990Z,26.50
2022-12-23T06:48:50.191Z,25.15
2022-12-23T06:52:52.830Z,26.75
2022-12-23T06:56:55.296Z,26.77
2022-12-23T07:00:58.270Z,26.48
2022-12-23T07:05:01.012Z,26.52
2022-12-23T07:09:03.274Z,27.52
2022-12-23T07:13:05.564Z,26.55
2022-12-23T07:17:08.003Z,25.15
2022-12-23T07:21:19.989Z,26.20
2022-12-23T07:25:27.144Z,26.38
2022-12-23T07:29:29.456Z,25.20
2022-12-23T07:33:31.718Z,28.52
2022-12-23T07:37:33.850Z,27.45
2022-12-23T07:41:36.095Z,28.45
2022-12-23T07:45:41.886Z,27.48
2022-12-23T07:49:44.552Z,28.27
2022-12-23T07:53:51.041Z,26.95
2022-12-23T07:57:53.975Z,26.85
2022-12-23T08:01:56.247Z,27.75
2022-12-23T08:06:07.747Z,27.23
2022-12-23T08:10:10.278Z,27.33
2022-12-23T08:14:12.415Z,24.70
2022-12-23T08:18:14.570Z,27.38
2022-12-23T08:22:17.080Z,25.40
2022-12-23T08:26:22.517Z,26.77
2022-12-23T08:30:24.842Z,27.98
2022-12-23T08:34:27.356Z,25.35
2022-12-23T08:38:29.667Z,25.25
2022-12-23T08:42:31.852Z,25.60
2022-12-23T08:46:34.640Z,28.05
2022-12-23T08:50:42.340Z,27.30
2022-12-23T08:54:44.613Z,25.83
2022-12-23T08:58:49.182Z,23.88
2022-12-23T09:06:55.246Z,21.50
2022-12-23T09:10:57.477Z,25.15
2022-12-23T09:14:59.624Z,24.40
2022-12-23T09:19:01.753Z,21.90
2022-12-23T09:23:04.695Z,22.50
2022-12-23T09:27:06.792Z,22.95
2022-12-23T09:31:13.590Z,22.70
2022-12-23T09:35:16.223Z,22.90
2022-12-23T09:39:18.367Z,28.73
2022-12-23T09:43:46.795Z,21.65
2022-12-23T09:47:50.221Z,23.25
2022-12-23T09:52:03.776Z,21.47
2022-12-23T09:56:08.419Z,21.05
2022-12-23T10:00:16.615Z,21.40
2022-12-23T10:05:00.121Z,21.08
2022-12-23T10:09:05.032Z,22.27
2022-12-23T10:13:19.510Z,21.75
2022-12-23T10:17:29.983Z,17.25
2022-12-23T10:21:54.993Z,20.88
2022-12-23T10:25:57.420Z,21.35
2022-12-23T10:30:42.002Z,19.40
2022-12-23T10:35:01.288Z,20.65
2022-12-23T10:39:21.112Z,17.92
2022-12-23T10:43:27.309Z,16.80
2022-12-23T10:47:52.252Z,18.80
2022-12-23T10:52:01.976Z,19.30
2022-12-23T10:56:07.011Z,18.50
2022-12-23T11:00:18.579Z,18.63
2022-12-23T11:04:32.761Z,17.33
2022-12-23T11:08:36.706Z,18.67
2022-12-23T11:12:45.733Z,18.30
2022-12-23T11:16:47.963Z,18.08
2022-12-23T11:21:14.529Z,17.08
2022-12-23T11:25:38.199Z,17.98
2022-12-23T11:29:54.543Z,17.05
2022-12-23T11:34:02.506Z,14.98
2022-12-23T11:38:04.825Z,14.98
2022-12-23T11:42:18.080Z,14.45
2022-12-23T11:46:29.659Z,14.52
2022-12-23T11:50:37.073Z,14.52
2022-12-23T11:54:40.047Z,14.40
2022-12-23T11:59:01.629Z,14.25
2022-12-23T12:03:07.348Z,15.82
2022-12-23T12:07:14.562Z,15.80
2022-12-23T12:11:28.061Z,16.00
2022-12-23T12:15:44.373Z,16.33
2022-12-23T12:24:26.474Z,16.75
2022-12-23T12:28:42.024Z,16.00
2022-12-23T12:33:16.274Z,16.02
2022-12-23T12:37:50.386Z,15.48
2022-12-23T12:42:06.019Z,17.25
2022-12-23T12:46:32.972Z,14.52
2022-12-23T12:50:42.607Z,14.23
2022-12-23T12:54:48.022Z,14.25
2022-12-23T12:58:53.611Z,14.60
2022-12-23T13:03:29.321Z,14.57
2022-12-23T13:07:52.095Z,16.23
2022-12-23T13:12:32.929Z,15.55
2022-12-23T13:16:47.814Z,16.35
2022-12-23T13:21:03.505Z,15.55
2022-12-23T13:25:13.829Z,17.33
2022-12-23T13:29:43.935Z,16.83
2022-12-23T13:33:52.603Z,18.55
2022-12-23T13:38:24.056Z,16.35
2022-12-23T13:42:38.119Z,17.55
2022-12-23T13:47:02.105Z,16.02
2022-12-23T13:51:18.938Z,17.98
2022-12-23T13:55:47.968Z,17.05
2022-12-23T14:00:18.564Z,17.60
2022-12-23T14:04:37.073Z,17.73
2022-12-23T14:08:48.843Z,18.05
2022-12-23T14:13:06.860Z,16.27
2022-12-23T14:17:36.664Z,17.45
2022-12-23T14:26:58.769Z,18.48
2022-12-23T14:31:04.328Z,17.30
2022-12-23T14:35:38.606Z,17.90
2022-12-23T14:39:50.592Z,17.98
2022-12-23T14:43:57.673Z,16.80
2022-12-23T14:48:04.366Z,17.73
2022-12-23T14:52:46.795Z,18.63
2022-12-23T14:57:08.937Z,18.58
2022-12-23T15:01:22.830Z,18.55
2022-12-23T15:05:27.902Z,19.60
2022-12-23T15:09:43.998Z,19.00
2022-12-23T15:14:03.056Z,21.42
2022-12-23T15:18:15.720Z,22.38
2022-12-23T15:22:32.263Z,25.88
2022-12-23T15:27:24.627Z,23.45
2022-12-23T15:31:35.382Z,23.77
2022-12-23T15:35:45.744Z,21.73
2022-12-23T15:40:04.511Z,21.45
2022-12-23T15:44:24.424Z,19.98
2022-12-23T15:48:43.284Z,18.38
2022-12-23T15:52:51.474Z,19.05
2022-12-23T15:57:00.774Z,18.92
2022-12-23T16:01:22.970Z,20.08
2022-12-23T16:05:45.931Z,21.95
2022-12-23T16:09:56.941Z,26.73
2022-12-23T16:14:21.797Z,23.88
2022-12-23T16:18:34.747Z,24.25
2022-12-23T16:22:41.878Z,24.90
2022-12-23T16:26:47.286Z,25.95
2022-12-23T16:31:01.565Z,24.33
2022-12-23T16:35:12.366Z,29.90
2022-12-23T16:39:26.690Z,30.02
2022-12-23T16:44:03.038Z,28.88
2022-12-23T16:48:30.868Z,27.47
2022-12-23T16:52:34.614Z,25.67
2022-12-23T16:56:39.517Z,31.52
2022-12-23T17:00:44.985Z,27.75
2022-12-23T17:04:55.800Z,29.38
2022-12-23T17:09:01.614Z,28.00
2022-12-23T17:13:07.148Z,28.20
2022-12-23T17:17:22.465Z,28.45
2022-12-23T17:21:46.366Z,29.40
2022-12-23T17:25:49.930Z,29.40
2022-12-23T17:30:00.213Z,31.60
2022-12-23T17:34:16.498Z,33.75
2022-12-23T17:38:27.228Z,37.55
2022-12-23T17:42:37.194Z,34.55
2022-12-23T17:46:46.072Z,34.95
2022-12-23T17:50:49.007Z,30.75
2022-12-23T17:54:51.595Z,42.40
2022-12-23T17:58:56.112Z,45.58
2022-12-23T18:02:58.871Z,47.03
2022-12-23T18:07:01.442Z,34.45
2022-12-23T18:11:05.779Z,35.25
2022-12-23T18:15:18.914Z,31.58
2022-12-23T18:19:21.944Z,29.17
2022-12-23T18:23:29.474Z,25.17
2022-12-23T18:27:31.692Z,25.73
2022-12-23T18:31:38.857Z,30.15
2022-12-23T18:35:49.007Z,29.58
2022-12-23T18:39:52.224Z,25.35
2022-12-23T18:43:57.190Z,22.52
2022-12-23T18:48:08.106Z,27.63
2022-12-23T18:52:14.667Z,33.22
2022-12-23T18:56:21.345Z,34.15
2022-12-23T19:00:28.548Z,32.17
2022-12-23T19:04:31.415Z,34.50
2022-12-23T19:08:40.226Z,35.10
2022-12-23T19:12:46.896Z,31.75
2022-12-23T19:20:58.960Z,32.63
2022-12-23T19:25:06.332Z,27.67
2022-12-23T19:29:09.692Z,24.00
2022-12-23T19:33:13.473Z,25.17
2022-12-23T19:37:15.769Z,24.55
2022-12-23T19:41:18.450Z,24.83
2022-12-23T19:45:20.735Z,27.75
2022-12-23T19:49:23.310Z,28.50
2022-12-23T19:53:26.781Z,25.85
2022-12-23T19:57:29.056Z,26.92
2022-12-23T20:01:31.749Z,28.02
2022-12-23T20:05:35.430Z,32.67
2022-12-23T20:09:44.004Z,33.13
2022-12-23T20:13:54.249Z,34.25
2022-12-23T20:17:57.267Z,34.30
2022-12-23T20:22:02.569Z,35.85
2022-12-23T20:26:05.724Z,37.53
2022-12-23T20:30:09.091Z,38.45
2022-12-23T20:34:19.120Z,34.97
2022-12-23T20:38:23.078Z,34.92
2022-12-23T20:42:28.417Z,33.25
2022-12-23T20:46:33.234Z,29.52
2022-12-23T20:50:41.562Z,29.05
2022-12-23T20:54:48.611Z,34.00
2022-12-23T20:59:02.414Z,29.50
2022-12-23T21:03:10.262Z,28.13
2022-12-23T21:07:13.446Z,28.27
2022-12-23T21:11:19.547Z,31.02
2022-12-23T21:15:23.610Z,32.72
2022-12-23T21:19:28.320Z,29.98
2022-12-23T21:23:31.443Z,27.33
2022-12-23T21:27:33.979Z,30.85
2022-12-23T21:31:40.122Z,30.10
2022-12-23T21:35:45.991Z,35.25
2022-12-23T21:39:50.070Z,36.10
2022-12-23T21:43:52.533Z,32.78
2022-12-23T21:47:57.104Z,34.53
2022-12-23T21:52:05.031Z,35.05
2022-12-23T21:56:18.279Z,34.67
2022-12-23T22:00:26.051Z,32.42
2022-12-23T22:04:30.075Z,33.13
2022-12-23T22:08:36.547Z,30.88
2022-12-23T22:12:40.531Z,33.67
2022-12-23T22:16:46.050Z,34.22
2022-12-23T22:20:51.527Z,33.78
2022-12-23T22:24:54.453Z,31.25
2022-12-23T22:29:07.315Z,43.42
2022-12-23T22:37:16.675Z,34.97
2022-12-23T22:41:29.609Z,34.03
2022-12-23T22:45:36.787Z,32.10
2022-12-23T22:49:45.204Z,28.75
2022-12-23T22:53:50.283Z,27.85
2022-12-23T22:57:53.517Z,26.30
2022-12-23T23:01:55.864Z,24.35
2022-12-23T23:06:01.899Z,25.42
2022-12-23T23:10:07.429Z,24.35
2022-12-23T23:14:14.488Z,26.13
2022-12-23T23:18:16.824Z,28.20
2022-12-23T23:22:21.293Z,28.77
2022-12-23T23:30:32.939Z,26.00
2022-12-23T23:34:37.418Z,24.75
2022-12-23T23:38:40.364Z,26.50
2022-12-23T23:42:44.014Z,27.70
2022-12-23T23:46:46.983Z,26.75
2022-12-23T23:50:49.157Z,25.17
2022-12-23T23:54:51.494Z,27.13
2022-12-23T23:58:55.397Z,28.98
